Time;durP1;ratioP1;P1;durP2;ratioP2;P2;SDS_P1;SDS_P2;PMS_P1;PMS_P2;Temp;Humidity;BMP_temperature;BMP_pressure;BME280_temperature;BME280_humidity;BME280_pressure;Samples;Min_cycle;Max_cycle;Signal;HPM_P1;HPM_P2
2022/01/16 00:00:40;;;;;;;136.00;63.90;;;4.90;96.30;;;;;;5003948;28;20492;-83
2022/01/16 00:05:55;;;;;;;138.40;65.05;;;5.00;95.90;;;;;;5012812;28;20137;-83
2022/01/16 00:08:20;;;;;;;156.80;67.55;;;4.90;95.90;;;;;;5014006;28;20030;-83
2022/01/16 00:10:48;;;;;;;138.80;64.53;;;4.90;96.30;;;;;;5016552;28;20036;-83
2022/01/16 00:13:15;;;;;;;133.13;63.03;;;4.90;95.80;;;;;;5004138;28;20431;-83
2022/01/16 00:15:44;;;;;;;140.25;65.60;;;4.60;95.20;;;;;;5007741;28;20049;-83
2022/01/16 00:18:22;;;;;;;150.10;68.20;;;4.40;95.10;;;;;;5013574;28;20061;-83
2022/01/16 00:20:48;;;;;;;155.93;71.13;;;4.30;95.30;;;;;;5006808;28;20506;-83
2022/01/16 00:23:22;;;;;;;170.00;74.63;;;4.10;95.60;;;;;;5011802;28;20037;-83
2022/01/16 00:25:49;;;;;;;182.32;79.60;;;4.20;95.70;;;;;;5014110;28;20104;-83
2022/01/16 00:28:14;;;;;;;176.02;80.30;;;4.20;95.80;;;;;;5013883;28;20048;-84
2022/01/16 00:30:40;;;;;;;177.02;79.68;;;4.00;95.50;;;;;;5009075;28;20026;-83
2022/01/16 00:33:06;;;;;;;200.73;86.45;;;4.00;95.70;;;;;;5012041;28;20054;-83
2022/01/16 00:35:31;;;;;;;181.00;82.05;;;3.90;95.90;;;;;;5013749;28;20132;-83
2022/01/16 00:37:57;;;;;;;176.90;81.88;;;3.80;95.90;;;;;;5015133;28;20021;-83
2022/01/16 00:40:23;;;;;;;176.07;81.30;;;3.60;96.20;;;;;;5014865;28;20048;-82
2022/01/16 00:42:49;;;;;;;162.90;74.88;;;3.70;96.50;;;;;;5008834;28;20427;-82
2022/01/16 00:45:15;;;;;;;161.95;73.20;;;3.80;96.20;;;;;;5010865;28;20037;-82
2022/01/16 00:47:40;;;;;;;152.30;69.50;;;3.70;95.90;;;;;;5011387;28;20040;-83
2022/01/16 00:50:07;;;;;;;155.60;71.15;;;3.60;96.40;;;;;;5014347;28;20045;-83
2022/01/16 00:52:33;;;;;;;152.90;70.40;;;3.50;96.50;;;;;;5019190;28;20479;-83
2022/01/16 00:55:03;;;;;;;160.00;70.72;;;3.60;96.60;;;;;;5017579;28;20037;-82
2022/01/16 00:57:29;;;;;;;157.60;70.85;;;3.50;96.60;;;;;;5019958;28;20036;-82
2022/01/16 00:59:55;;;;;;;151.35;73.80;;;3.50;96.90;;;;;;5021229;28;20353;-83
2022/01/16 01:02:21;;;;;;;162.68;76.20;;;3.60;97.10;;;;;;5018500;28;20022;-82
2022/01/16 01:04:47;;;;;;;168.02;77.65;;;3.60;97.00;;;;;;5026918;28;20111;-83
2022/01/16 01:07:13;;;;;;;188.02;78.55;;;3.60;96.70;;;;;;5019244;28;20377;-82
2022/01/16 01:09:39;;;;;;;174.75;78.45;;;3.70;97.10;;;;;;5022356;28;20040;-82
2022/01/16 01:12:06;;;;;;;175.13;78.45;;;3.90;96.90;;;;;;5022475;28;20478;-82
2022/01/16 01:14:53;;;;;;;179.70;80.88;;;3.90;96.70;;;;;;5024344;28;20041;-82
2022/01/16 01:17:24;;;;;;;179.25;81.03;;;4.00;96.40;;;;;;5011840;28;20039;-82
2022/01/16 01:19:50;;;;;;;181.68;80.97;;;3.90;96.20;;;;;;5027649;28;20025;-82
2022/01/16 01:22:16;;;;;;;180.48;80.82;;;3.80;96.10;;;;;;5026003;28;20025;-82
2022/01/16 01:24:42;;;;;;;191.90;85.07;;;3.90;96.10;;;;;;5022864;28;20030;-82
2022/01/16 01:29:34;;;;;;;168.30;84.47;;;3.80;95.70;;;;;;5012521;28;20029;-82
2022/01/16 01:32:01;;;;;;;185.63;85.50;;;3.70;95.70;;;;;;5008323;28;20037;-82
2022/01/16 01:34:26;;;;;;;181.15;84.25;;;3.50;95.50;;;;;;5011095;28;20083;-82
2022/01/16 01:36:52;;;;;;;184.60;82.47;;;3.40;95.80;;;;;;5009691;28;20427;-82
2022/01/16 01:39:22;;;;;;;193.77;84.63;;;3.30;96.20;;;;;;5009987;28;20595;-82
2022/01/16 01:41:54;;;;;;;186.00;82.93;;;3.30;96.50;;;;;;5009167;28;20018;-81
2022/01/16 01:52:34;;;;;;;157.85;71.95;;;3.80;97.60;;;;;;5011959;28;20092;-81
2022/01/16 01:55:00;;;;;;;168.88;74.90;;;4.10;97.40;;;;;;5008982;28;20113;-81
2022/01/16 01:57:26;;;;;;;175.07;74.25;;;4.10;97.00;;;;;;5009070;28;20096;-82
2022/01/16 01:59:51;;;;;;;158.70;73.95;;;4.20;96.90;;;;;;5009250;28;20022;-81
2022/01/16 02:02:17;;;;;;;165.88;68.72;;;4.20;96.50;;;;;;5008054;28;20495;-81
2022/01/16 02:04:43;;;;;;;158.43;66.43;;;4.40;96.50;;;;;;5011686;28;20034;-81
2022/01/16 02:07:08;;;;;;;148.95;64.80;;;4.40;96.20;;;;;;5013113;28;20514;-82
2022/01/16 02:09:34;;;;;;;149.43;62.75;;;4.40;96.20;;;;;;5015856;28;20026;-82
2022/01/16 02:12:01;;;;;;;137.27;59.55;;;4.40;96.10;;;;;;5019507;28;20046;-82
2022/01/16 02:14:32;;;;;;;136.60;60.90;;;4.50;95.80;;;;;;5021924;28;20037;-82
2022/01/16 02:28:25;;;;;;;129.07;56.88;;;4.70;94.70;;;;;;5016956;28;20052;-81
2022/01/16 02:31:02;;;;;;;122.78;55.83;;;4.60;94.50;;;;;;5015575;28;20041;-82
2022/01/16 02:36:13;;;;;;;152.00;65.70;;;4.60;94.70;;;;;;5019647;28;20109;-82
2022/01/16 02:38:39;;;;;;;156.38;66.53;;;4.60;94.20;;;;;;5019674;28;20407;-82
2022/01/16 02:41:05;;;;;;;165.63;76.70;;;4.20;92.90;;;;;;5020547;28;20106;-82
2022/01/16 02:43:34;;;;;;;181.27;78.40;;;3.90;92.70;;;;;;5019660;28;20032;-81
2022/01/16 02:46:36;;;;;;;163.38;75.72;;;3.60;93.30;;;;;;5020392;28;20484;-82
2022/01/16 02:48:55;;;;;;;171.55;75.18;;;3.40;94.00;;;;;;5018836;28;20438;-82
2022/01/16 02:51:26;;;;;;;164.88;76.90;;;3.20;94.40;;;;;;5015744;28;20050;-82
2022/01/16 02:53:53;;;;;;;167.65;72.35;;;3.20;95.10;;;;;;5014250;28;20388;-82
2022/01/16 02:56:19;;;;;;;174.60;75.32;;;3.30;95.10;;;;;;5018738;28;20023;-82
2022/01/16 02:58:46;;;;;;;172.85;75.07;;;3.30;95.10;;;;;;5021251;28;20051;-82
2022/01/16 03:01:13;;;;;;;169.20;74.85;;;3.20;95.30;;;;;;5019846;28;20236;-82
2022/01/16 03:03:40;;;;;;;177.18;76.90;;;3.20;95.40;;;;;;5020828;28;20029;-82
2022/01/16 03:06:05;;;;;;;167.68;75.95;;;3.20;95.40;;;;;;5017001;28;20030;-82
2022/01/16 03:08:31;;;;;;;167.93;74.32;;;3.00;95.60;;;;;;5019545;28;20029;-82
2022/01/16 03:13:24;;;;;;;163.15;73.93;;;2.70;96.50;;;;;;5021426;28;20116;-81
2022/01/16 03:15:52;;;;;;;169.60;76.63;;;2.70;96.60;;;;;;5021580;28;20026;-82
2022/01/16 03:23:30;;;;;;;172.20;74.95;;;2.90;96.40;;;;;;5007047;28;20404;-82
2022/01/16 03:25:56;;;;;;;188.68;79.00;;;2.90;96.10;;;;;;5021798;28;20034;-82
2022/01/16 03:28:25;;;;;;;174.23;76.28;;;2.80;96.00;;;;;;5021336;28;20022;-82
2022/01/16 03:30:51;;;;;;;174.10;80.75;;;2.70;95.80;;;;;;5021029;28;20091;-82
2022/01/16 03:33:17;;;;;;;174.68;75.63;;;2.50;95.90;;;;;;5009632;28;20033;-82
2022/01/16 03:35:43;;;;;;;185.60;76.32;;;2.40;96.40;;;;;;5017637;28;20551;-82
2022/01/16 03:38:09;;;;;;;181.77;78.93;;;2.50;96.80;;;;;;5020205;28;20033;-82
2022/01/16 03:40:35;;;;;;;187.45;82.00;;;2.50;96.60;;;;;;5021245;28;20026;-82
2022/01/16 03:43:12;;;;;;;174.07;78.25;;;2.50;96.40;;;;;;5018985;28;20032;-82
2022/01/16 03:45:40;;;;;;;179.18;78.30;;;2.60;96.00;;;;;;5018375;28;20022;-82
2022/01/16 03:48:05;;;;;;;181.85;79.95;;;2.30;96.20;;;;;;5015714;28;20064;-82
2022/01/16 03:50:31;;;;;;;182.63;80.10;;;2.20;96.60;;;;;;5018797;28;20077;-82
2022/01/16 03:52:57;;;;;;;174.90;76.55;;;2.30;97.10;;;;;;5020196;28;20041;-82
2022/01/16 03:55:22;;;;;;;175.73;81.13;;;2.40;97.20;;;;;;5021215;28;20018;-82
2022/01/16 03:57:48;;;;;;;181.98;79.38;;;2.40;96.90;;;;;;5018821;28;20026;-82
2022/01/16 04:00:14;;;;;;;164.50;69.10;;;2.40;97.20;;;;;;5012672;28;20049;-82
2022/01/16 04:02:40;;;;;;;146.85;63.67;;;2.60;97.70;;;;;;5020418;28;20034;-82
2022/01/16 04:05:06;;;;;;;160.88;62.28;;;2.90;98.00;;;;;;5019016;28;20141;-82
2022/01/16 04:07:35;;;;;;;146.50;59.67;;;3.20;97.50;;;;;;5018151;28;20056;-82
2022/01/16 04:10:06;;;;;;;128.27;55.08;;;3.40;97.30;;;;;;5014341;28;20077;-82
2022/01/16 04:12:34;;;;;;;133.20;59.25;;;3.60;96.80;;;;;;5017466;28;20042;-82
2022/01/16 04:17:26;;;;;;;145.68;65.60;;;3.70;96.00;;;;;;5018913;28;20112;-82
2022/01/16 04:19:52;;;;;;;142.98;65.00;;;3.70;96.00;;;;;;5017396;28;20040;-82
2022/01/16 04:22:19;;;;;;;131.07;58.60;;;3.60;96.00;;;;;;5016351;28;20030;-82
2022/01/16 04:24:45;;;;;;;125.53;54.15;;;3.60;95.90;;;;;;5015053;28;20029;-82
2022/01/16 04:27:12;;;;;;;131.20;54.97;;;3.60;96.20;;;;;;5017739;28;20451;-82
2022/01/16 04:29:39;;;;;;;120.60;51.35;;;3.60;96.00;;;;;;5017836;28;20021;-83
2022/01/16 04:32:05;;;;;;;120.75;49.63;;;3.80;96.10;;;;;;5016904;28;20113;-83
2022/01/16 04:34:31;;;;;;;107.25;49.33;;;3.80;95.80;;;;;;5017379;28;20025;-82
2022/01/16 04:36:57;;;;;;;109.68;48.58;;;3.90;95.60;;;;;;5013130;28;20033;-82
2022/01/16 04:39:31;;;;;;;104.40;45.92;;;4.00;95.30;;;;;;5019972;28;20025;-82
2022/01/16 04:44:41;;;;;;;111.20;46.42;;;3.90;95.20;;;;;;5005574;28;20084;-82
2022/01/16 04:47:07;;;;;;;110.03;47.80;;;3.90;95.10;;;;;;5018996;28;20037;-82
2022/01/16 04:49:33;;;;;;;112.07;49.15;;;3.90;95.00;;;;;;5016528;28;20896;-83
2022/01/16 04:51:59;;;;;;;120.18;50.63;;;3.80;94.90;;;;;;5012113;28;20030;-82
2022/01/16 04:54:25;;;;;;;123.20;52.63;;;3.70;94.90;;;;;;5015608;28;20041;-82
2022/01/16 04:56:52;;;;;;;137.40;58.65;;;3.70;94.50;;;;;;5016419;28;20396;-82
2022/01/16 04:59:19;;;;;;;131.05;59.90;;;3.50;94.10;;;;;;5015757;28;20504;-82
2022/01/16 05:01:44;;;;;;;134.20;61.22;;;3.20;93.90;;;;;;5016821;28;20022;-82
2022/01/16 05:04:11;;;;;;;144.15;62.63;;;3.00;94.10;;;;;;5011859;28;20060;-82
2022/01/16 05:06:37;;;;;;;136.00;64.97;;;3.00;94.60;;;;;;5014280;28;20030;-82
2022/01/16 05:09:03;;;;;;;148.73;65.93;;;2.90;94.70;;;;;;5015293;28;20492;-82
2022/01/16 05:11:29;;;;;;;144.02;65.45;;;2.70;94.70;;;;;;5014792;28;20037;-82
2022/01/16 05:19:12;;;;;;;135.77;60.80;;;2.60;96.40;;;;;;5017237;28;20113;-82
2022/01/16 05:21:39;;;;;;;155.90;70.00;;;2.70;96.20;;;;;;5010629;28;20514;-82
2022/01/16 05:24:09;;;;;;;167.50;67.93;;;2.60;94.80;;;;;;5012999;28;20026;-82
2022/01/16 05:26:40;;;;;;;162.10;71.25;;;2.60;94.60;;;;;;5001938;28;20040;-82
2022/01/16 05:29:06;;;;;;;153.07;66.95;;;2.50;94.80;;;;;;5017301;28;20033;-82
2022/01/16 05:31:32;;;;;;;156.30;69.75;;;2.30;94.90;;;;;;5020021;28;20033;-82
2022/01/16 05:33:58;;;;;;;151.82;65.97;;;2.10;95.40;;;;;;5016890;28;20034;-82
2022/01/16 05:36:24;;;;;;;151.40;66.38;;;2.00;95.90;;;;;;5012331;28;20502;-81
2022/01/16 05:38:50;;;;;;;158.65;70.03;;;2.10;96.30;;;;;;5014545;28;20018;-81
2022/01/16 05:41:18;;;;;;;154.63;71.18;;;2.20;96.40;;;;;;5017036;28;20141;-82
2022/01/16 05:43:45;;;;;;;144.07;63.60;;;2.10;96.20;;;;;;5022795;28;20024;-82
2022/01/16 05:46:11;;;;;;;143.43;64.15;;;2.20;96.20;;;;;;5021283;28;20112;-82
2022/01/16 05:48:37;;;;;;;141.80;61.92;;;2.20;96.20;;;;;;5016201;28;20115;-83
2022/01/16 05:51:02;;;;;;;146.30;61.63;;;2.20;96.30;;;;;;5016783;28;20045;-82
2022/01/16 05:53:28;;;;;;;145.65;61.50;;;2.20;96.30;;;;;;5020296;28;20046;-83
2022/01/16 05:55:54;;;;;;;146.52;61.30;;;2.20;96.50;;;;;;5018258;28;20545;-82
2022/01/16 05:58:19;;;;;;;137.73;61.30;;;2.20;96.40;;;;;;5013941;28;20030;-82
2022/01/16 06:00:47;;;;;;;143.48;58.17;;;2.20;96.20;;;;;;5018733;28;20034;-82
2022/01/16 06:03:13;;;;;;;147.63;59.85;;;2.10;96.20;;;;;;5020119;28;20042;-82
2022/01/16 06:05:39;;;;;;;129.25;62.67;;;2.20;96.10;;;;;;5019346;28;20092;-82
2022/01/16 06:08:11;;;;;;;140.05;58.47;;;2.30;96.30;;;;;;5016484;28;20026;-82
2022/01/16 06:10:37;;;;;;;131.02;56.80;;;2.30;96.60;;;;;;5021773;28;20018;-83
2022/01/16 06:13:04;;;;;;;129.02;56.25;;;2.40;96.70;;;;;;5015955;28;20040;-82
2022/01/16 06:15:30;;;;;;;118.38;53.10;;;2.40;96.60;;;;;;5020834;28;20054;-82
2022/01/16 06:17:56;;;;;;;121.50;52.13;;;2.50;97.10;;;;;;5018836;28;20060;-82
2022/01/16 06:20:21;;;;;;;112.93;50.22;;;2.50;96.40;;;;;;5015949;28;20034;-82
2022/01/16 06:22:47;;;;;;;105.18;47.70;;;2.60;96.00;;;;;;5018717;28;20017;-82
2022/01/16 06:25:14;;;;;;;106.80;47.30;;;2.60;96.00;;;;;;5017299;28;20228;-82
2022/01/16 06:27:40;;;;;;;108.50;47.05;;;2.70;96.20;;;;;;5018836;28;20160;-82
2022/01/16 06:30:09;;;;;;;96.82;45.17;;;2.60;96.50;;;;;;5018309;28;20029;-82
2022/01/16 06:32:35;;;;;;;101.55;46.00;;;2.70;96.80;;;;;;5018459;28;20030;-82
2022/01/16 06:35:00;;;;;;;96.90;44.90;;;2.80;96.60;;;;;;5022035;28;20034;-82
2022/01/16 06:37:26;;;;;;;92.88;42.40;;;2.80;96.40;;;;;;5024611;28;20029;-82
2022/01/16 06:39:52;;;;;;;98.53;43.60;;;2.80;96.20;;;;;;5019382;28;20030;-82
2022/01/16 06:42:18;;;;;;;89.18;43.67;;;2.70;96.30;;;;;;5018317;28;20033;-81
2022/01/16 06:44:44;;;;;;;89.70;42.63;;;2.80;96.30;;;;;;5022904;28;20036;-82
2022/01/16 06:47:09;;;;;;;93.28;43.95;;;2.90;96.20;;;;;;5015223;28;20022;-82
2022/01/16 06:49:35;;;;;;;115.10;50.80;;;2.80;95.60;;;;;;5025382;28;20037;-82
2022/01/16 06:52:02;;;;;;;113.15;52.30;;;2.70;95.30;;;;;;5018225;28;20025;-82
2022/01/16 06:54:27;;;;;;;118.45;54.28;;;2.60;95.10;;;;;;5017432;28;20038;-82
2022/01/16 06:56:53;;;;;;;114.43;50.60;;;2.40;95.30;;;;;;5021005;28;20040;-82
2022/01/16 06:59:19;;;;;;;127.13;54.22;;;2.10;95.70;;;;;;5018950;28;20034;-81
2022/01/16 07:01:44;;;;;;;112.05;51.63;;;2.00;96.30;;;;;;5024905;28;20469;-82
2022/01/16 07:04:10;;;;;;;122.95;53.00;;;2.00;96.60;;;;;;5020947;28;20397;-82
2022/01/16 07:06:36;;;;;;;112.13;52.42;;;2.10;96.50;;;;;;5016745;28;20096;-81
2022/01/16 07:09:01;;;;;;;115.20;48.50;;;2.10;96.50;;;;;;5019650;28;20089;-81
2022/01/16 07:11:27;;;;;;;129.07;55.95;;;2.20;96.70;;;;;;5014300;28;20022;-81
2022/01/16 07:13:53;;;;;;;128.20;54.30;;;2.20;96.30;;;;;;5017288;28;20480;-82
2022/01/16 07:16:18;;;;;;;119.10;51.28;;;2.20;95.70;;;;;;5014515;28;20029;-81
2022/01/16 07:18:44;;;;;;;113.18;47.70;;;2.20;96.00;;;;;;5015567;28;20041;-81
2022/01/16 07:21:13;;;;;;;95.97;42.83;;;2.10;96.60;;;;;;5015815;28;20037;-81
2022/01/16 07:23:43;;;;;;;95.30;41.72;;;2.10;97.70;;;;;;5014577;28;20468;-82
2022/01/16 07:26:08;;;;;;;89.97;40.55;;;2.20;98.20;;;;;;5013201;28;20171;-81
2022/01/16 07:28:34;;;;;;;84.15;38.75;;;2.50;97.80;;;;;;5017172;28;20559;-82
2022/01/16 07:31:00;;;;;;;77.68;38.13;;;2.60;97.10;;;;;;5013914;28;20030;-81
2022/01/16 07:33:26;;;;;;;79.47;37.25;;;2.70;96.80;;;;;;5014628;28;20093;-82
2022/01/16 07:35:52;;;;;;;105.78;47.42;;;2.80;96.10;;;;;;5014527;28;20026;-81
2022/01/16 07:38:17;;;;;;;79.97;37.72;;;2.70;94.50;;;;;;5012616;28;20026;-81
2022/01/16 07:40:43;;;;;;;66.25;30.55;;;2.60;95.50;;;;;;5021132;28;20022;-82
2022/01/16 07:43:09;;;;;;;60.28;28.77;;;2.70;95.50;;;;;;5016226;28;20028;-82
2022/01/16 07:45:37;;;;;;;63.10;28.63;;;3.00;95.00;;;;;;5013073;28;20511;-82
2022/01/16 07:48:05;;;;;;;64.88;29.60;;;3.30;94.10;;;;;;5020862;28;20087;-82
2022/01/16 07:50:31;;;;;;;67.32;32.67;;;3.40;93.50;;;;;;5018319;28;20046;-82
2022/01/16 07:52:57;;;;;;;88.10;41.45;;;3.50;93.00;;;;;;5022085;28;20049;-82
2022/01/16 07:55:25;;;;;;;133.10;57.28;;;3.50;92.40;;;;;;5020991;28;20036;-84
2022/01/16 07:57:52;;;;;;;154.77;66.90;;;3.10;92.10;;;;;;5015069;28;20021;-81
2022/01/16 08:00:18;;;;;;;141.55;63.17;;;2.80;91.60;;;;;;5016736;28;20392;-82
2022/01/16 08:02:44;;;;;;;126.63;61.75;;;2.70;92.60;;;;;;5019525;28;20037;-77
2022/01/16 08:05:10;;;;;;;130.23;57.10;;;2.40;92.80;;;;;;5011326;28;20026;-74
2022/01/16 08:07:35;;;;;;;111.47;50.55;;;2.20;93.50;;;;;;5016976;28;20032;-74
2022/01/16 08:10:01;;;;;;;110.53;50.72;;;2.40;94.40;;;;;;5016112;28;20022;-74
2022/01/16 08:12:27;;;;;;;108.05;50.58;;;2.50;94.20;;;;;;5013276;28;20411;-74
2022/01/16 08:14:53;;;;;;;109.55;49.38;;;2.30;94.00;;;;;;5019286;28;20529;-74
2022/01/16 08:17:18;;;;;;;107.63;48.70;;;2.40;94.70;;;;;;5012591;28;20045;-74
2022/01/16 08:19:44;;;;;;;117.82;50.85;;;2.60;95.00;;;;;;5022507;28;20100;-74
2022/01/16 08:22:10;;;;;;;111.72;51.47;;;2.60;94.10;;;;;;5016701;28;20025;-74
2022/01/16 08:24:36;;;;;;;117.13;52.60;;;2.70;94.00;;;;;;5013499;28;20125;-73
2022/01/16 08:27:02;;;;;;;122.93;54.55;;;2.80;94.00;;;;;;5010637;28;20527;-74
2022/01/16 08:29:28;;;;;;;109.07;51.63;;;2.70;93.90;;;;;;5010355;28;20034;-74
2022/01/16 08:31:57;;;;;;;115.57;50.30;;;3.10;94.60;;;;;;5013374;28;20032;-74
2022/01/16 08:34:22;;;;;;;128.70;54.22;;;4.20;93.70;;;;;;5012266;28;20029;-74
2022/01/16 08:36:48;;;;;;;119.25;54.10;;;6.80;85.40;;;;;;5011488;28;20573;-73
2022/01/16 08:39:14;;;;;;;110.07;52.55;;;9.30;71.30;;;;;;5011653;28;20072;-74
2022/01/16 08:41:40;;;;;;;107.25;50.53;;;10.70;62.60;;;;;;5011044;28;20029;-73
2022/01/16 08:44:07;;;;;;;110.70;53.95;;;12.40;59.40;;;;;;5010949;28;20019;-74
2022/01/16 08:46:33;;;;;;;114.40;55.80;;;13.10;55.60;;;;;;5012194;28;20022;-74
2022/01/16 08:49:00;;;;;;;109.03;55.50;;;14.10;54.00;;;;;;5010976;28;20457;-75
2022/01/16 08:51:26;;;;;;;102.15;51.60;;;14.70;52.40;;;;;;5010729;28;20050;-75
2022/01/16 08:53:52;;;;;;;94.95;51.88;;;14.80;51.00;;;;;;5010468;28;20420;-78
2022/01/16 08:56:17;;;;;;;105.57;56.25;;;15.30;50.80;;;;;;5009760;28;20030;-77
2022/01/16 08:58:43;;;;;;;107.97;58.45;;;14.70;50.40;;;;;;5013381;28;20026;-78
2022/01/16 09:01:09;;;;;;;116.85;63.17;;;13.80;52.80;;;;;;5009625;28;20053;-75
2022/01/16 09:03:36;;;;;;;114.65;62.92;;;12.70;56.40;;;;;;5009192;28;20030;-80
2022/01/16 09:06:01;;;;;;;128.50;67.90;;;11.90;57.90;;;;;;5016289;28;20069;-77
2022/01/16 09:08:27;;;;;;;114.65;64.47;;;10.80;60.30;;;;;;5014496;28;20587;-77
2022/01/16 09:10:53;;;;;;;112.03;61.40;;;9.90;64.50;;;;;;5014940;28;20385;-79
2022/01/16 09:13:19;;;;;;;106.82;59.22;;;9.20;67.70;;;;;;5015005;28;20096;-78
2022/01/16 09:15:47;;;;;;;88.47;50.63;;;8.70;69.70;;;;;;5011918;28;20030;-79
2022/01/16 09:18:14;;;;;;;72.15;43.58;;;8.50;69.90;;;;;;5014433;28;20145;-78
2022/01/16 09:20:40;;;;;;;59.45;34.35;;;8.60;69.90;;;;;;5008413;28;20092;-78
2022/01/16 09:23:06;;;;;;;78.90;41.58;;;8.80;68.80;;;;;;5014005;28;20097;-78
2022/01/16 09:25:32;;;;;;;54.33;31.73;;;8.90;68.30;;;;;;5018204;28;20060;-78
2022/01/16 09:27:58;;;;;;;45.40;27.23;;;9.00;68.10;;;;;;5010095;28;20037;-78
2022/01/16 09:30:24;;;;;;;43.17;26.15;;;9.10;68.50;;;;;;5012800;28;20030;-77
2022/01/16 09:32:51;;;;;;;50.00;28.80;;;9.10;67.90;;;;;;5012523;28;20034;-78
2022/01/16 09:35:17;;;;;;;42.00;24.77;;;9.20;67.70;;;;;;5016959;28;20033;-78
2022/01/16 09:37:44;;;;;;;44.35;25.88;;;9.30;67.50;;;;;;5015810;28;20026;-79
2022/01/16 09:40:12;;;;;;;48.08;26.88;;;9.20;67.40;;;;;;5007682;28;20436;-79
2022/01/16 09:42:39;;;;;;;45.85;23.83;;;9.40;68.10;;;;;;5004789;28;20491;-77
2022/01/16 09:45:08;;;;;;;40.22;22.25;;;9.50;67.10;;;;;;5003953;28;20033;-77
2022/01/16 09:47:34;;;;;;;40.65;21.50;;;9.60;67.20;;;;;;5005110;28;20484;-77
2022/01/16 09:50:00;;;;;;;36.53;21.88;;;9.80;66.50;;;;;;5010859;28;20132;-77
2022/01/16 09:52:26;;;;;;;39.47;23.15;;;9.90;66.40;;;;;;5012266;28;20038;-77
2022/01/16 09:54:51;;;;;;;45.78;25.67;;;9.90;67.40;;;;;;5014587;28;20032;-77
2022/01/16 09:57:18;;;;;;;45.00;25.40;;;10.00;67.50;;;;;;5011661;28;20033;-77
2022/01/16 09:59:45;;;;;;;42.72;25.20;;;10.10;67.20;;;;;;5011512;28;20030;-77
2022/01/16 10:02:11;;;;;;;43.83;26.25;;;10.20;66.70;;;;;;5015329;28;20454;-76
2022/01/16 10:04:39;;;;;;;42.47;26.63;;;10.30;67.20;;;;;;5020035;28;20456;-78
2022/01/16 10:07:11;;;;;;;47.83;26.95;;;10.40;66.70;;;;;;5008371;28;20484;-76
2022/01/16 10:09:40;;;;;;;48.08;28.27;;;10.40;66.70;;;;;;5008486;28;20033;-77
2022/01/16 10:12:18;;;;;;;43.15;25.15;;;10.50;66.40;;;;;;5010751;28;20037;-74
2022/01/16 10:14:47;;;;;;;44.50;26.90;;;10.50;66.70;;;;;;5009318;28;20026;-76
2022/01/16 10:17:21;;;;;;;44.15;25.92;;;10.50;65.80;;;;;;5007842;28;20030;-76
2022/01/16 10:19:57;;;;;;;;;;;10.60;66.20;;;;;;5016367;28;20030;-77
2022/01/16 10:22:23;;;;;;;37.58;23.48;;;10.80;65.70;;;;;;5011788;28;19967;-75
2022/01/16 10:24:51;;;;;;;43.03;24.15;;;11.00;65.40;;;;;;5013358;28;20041;-76
2022/01/16 10:27:19;;;;;;;40.78;24.00;;;11.10;65.10;;;;;;5001893;28;20025;-81
2022/01/16 10:29:44;;;;;;;40.22;23.15;;;11.10;65.70;;;;;;5012106;28;20030;-80
2022/01/16 10:32:31;;;;;;;40.10;23.45;;;11.20;64.80;;;;;;5019810;28;20777;-80
2022/01/16 10:35:17;;;;;;;34.08;21.77;;;11.20;64.70;;;;;;5018873;28;20052;-81
2022/01/16 10:37:52;;;;;;;39.65;24.17;;;11.30;65.00;;;;;;5017440;28;20044;-80
2022/01/16 10:40:21;;;;;;;37.90;20.48;;;11.40;65.70;;;;;;5016971;28;20022;-80
2022/01/16 10:42:53;;;;;;;33.53;19.02;;;11.40;65.40;;;;;;5015672;28;20029;-80
2022/01/16 10:45:23;;;;;;;31.52;18.25;;;11.30;64.20;;;;;;5004819;28;20084;-79
2022/01/16 10:47:53;;;;;;;33.25;18.92;;;11.40;64.60;;;;;;5015099;28;20042;-84
2022/01/16 10:50:24;;;;;;;33.80;19.80;;;11.50;63.90;;;;;;5003869;28;20406;-80
2022/01/16 10:53:04;;;;;;;35.75;19.55;;;11.60;64.50;;;;;;5017738;28;20045;-80
2022/01/16 10:55:30;;;;;;;36.10;20.80;;;11.70;63.80;;;;;;5019648;28;20030;-81
2022/01/16 10:58:15;;;;;;;37.15;21.20;;;11.90;63.70;;;;;;5007517;28;20506;-81
2022/01/16 11:00:46;;;;;;;37.03;21.58;;;11.90;63.00;;;;;;5003944;28;20025;-80
2022/01/16 11:03:14;;;;;;;37.20;21.40;;;12.10;63.40;;;;;;5014454;28;20021;-80
2022/01/16 11:05:43;;;;;;;29.55;17.38;;;12.20;63.80;;;;;;5015099;28;20034;-74
2022/01/16 11:08:17;;;;;;;28.25;16.00;;;12.30;63.40;;;;;;5013823;28;20036;-75
2022/01/16 11:10:49;;;;;;;21.98;13.13;;;12.50;61.20;;;;;;5007577;28;20021;-77
2022/01/16 11:13:20;;;;;;;24.38;13.55;;;12.70;60.40;;;;;;5010688;28;20038;-76
2022/01/16 11:15:54;;;;;;;25.77;13.77;;;12.80;59.00;;;;;;5015202;28;20034;-75
2022/01/16 11:18:21;;;;;;;20.38;11.07;;;12.80;59.90;;;;;;5016308;28;20423;-76
2022/01/16 11:20:56;;;;;;;20.48;10.57;;;12.90;58.10;;;;;;5017477;28;20022;-75
2022/01/16 11:25:54;;;;;;;15.55;8.57;;;13.20;57.30;;;;;;5018346;28;20052;-75
2022/01/16 11:28:20;;;;;;;15.40;7.72;;;13.50;57.10;;;;;;5018010;28;20028;-75
2022/01/16 11:30:49;;;;;;;16.55;8.00;;;13.70;54.30;;;;;;5016483;28;20104;-75
2022/01/16 11:33:16;;;;;;;16.02;7.88;;;14.00;53.30;;;;;;5019129;28;20061;-75
2022/01/16 11:35:50;;;;;;;15.50;8.15;;;14.20;52.60;;;;;;5018807;28;20029;-75
2022/01/16 11:38:19;;;;;;;15.43;8.15;;;14.20;51.10;;;;;;5020189;28;20034;-75
2022/01/16 11:40:46;;;;;;;14.23;8.23;;;14.20;51.20;;;;;;5019090;28;20562;-75
2022/01/16 11:43:16;;;;;;;18.00;8.05;;;14.40;53.10;;;;;;5021909;28;20116;-78
2022/01/16 11:46:04;;;;;;;17.42;8.50;;;14.60;53.10;;;;;;5018035;28;20499;-79
2022/01/16 11:48:34;;;;;;;16.25;8.27;;;14.70;50.80;;;;;;5011455;28;20033;-79
2022/01/16 11:51:02;;;;;;;15.90;8.35;;;14.80;50.00;;;;;;5015339;28;20046;-77
2022/01/16 11:54:13;;;;;;;15.77;7.70;;;15.00;50.60;;;;;;5020148;28;20107;-76
2022/01/16 11:59:21;;;;;;;18.45;9.15;;;15.40;49.60;;;;;;5018938;28;20034;-76
2022/01/16 12:01:59;;;;;;;14.50;8.38;;;15.50;50.10;;;;;;5016840;28;20034;-80
2022/01/16 12:04:28;;;;;;;16.48;8.73;;;15.70;49.90;;;;;;5021616;28;20029;-76
2022/01/16 12:07:05;;;;;;;14.70;8.43;;;15.70;48.10;;;;;;5018754;28;20083;-77
2022/01/16 12:12:16;;;;;;;19.60;9.43;;;15.80;48.90;;;;;;5014779;28;20034;-78
2022/01/16 12:15:02;;;;;;;20.55;9.85;;;16.00;48.10;;;;;;5017429;28;20542;-74
2022/01/16 12:17:29;;;;;;;19.05;10.38;;;16.10;47.80;;;;;;5018601;28;20084;-78
2022/01/16 12:20:15;;;;;;;18.88;9.93;;;16.40;48.30;;;;;;5018560;28;20025;-77
2022/01/16 12:23:00;;;;;;;18.77;9.77;;;16.70;47.20;;;;;;5012206;28;20057;-78
2022/01/16 12:25:26;;;;;;;20.77;9.93;;;17.30;47.80;;;;;;5019703;28;20475;-77
2022/01/16 12:28:04;;;;;;;16.75;9.32;;;18.80;46.20;;;;;;5017093;28;20022;-77
2022/01/16 12:30:44;;;;;;;13.48;7.05;;;21.30;42.70;;;;;;5013743;28;20021;-77
2022/01/16 12:33:16;;;;;;;15.65;7.38;;;23.90;39.10;;;;;;5013476;28;20038;-78
2022/01/16 12:35:42;;;;;;;16.95;8.30;;;25.60;35.90;;;;;;5017078;28;20030;-76
2022/01/16 12:38:09;;;;;;;15.15;7.85;;;26.40;33.40;;;;;;5014512;28;20477;-78
2022/01/16 12:40:35;;;;;;;12.73;7.00;;;26.90;34.10;;;;;;5015226;28;20026;-78
2022/01/16 12:43:04;;;;;;;12.60;7.80;;;27.60;33.10;;;;;;5011114;28;20108;-78
2022/01/16 12:45:39;;;;;;;14.10;7.38;;;27.90;33.30;;;;;;5015141;28;20029;-78
2022/01/16 12:48:06;;;;;;;15.18;7.03;;;28.10;32.40;;;;;;5014842;28;20053;-77
2022/01/16 12:50:33;;;;;;;15.80;7.03;;;27.70;31.30;;;;;;5014041;28;20042;-81
2022/01/16 12:52:59;;;;;;;12.23;6.55;;;26.20;31.20;;;;;;5013843;28;20030;-83
2022/01/16 12:55:33;;;;;;;13.43;6.82;;;24.80;33.10;;;;;;5012688;28;20061;-80
2022/01/16 12:58:20;;;;;;;12.60;6.13;;;23.90;34.00;;;;;;5010955;28;20426;-83
2022/01/16 13:00:58;;;;;;;11.20;5.50;;;24.50;33.50;;;;;;5006173;28;20076;-86
2022/01/16 13:03:28;;;;;;;11.98;6.00;;;27.10;32.80;;;;;;5013425;28;20030;-77
2022/01/16 13:06:17;;;;;;;11.90;5.85;;;29.10;32.50;;;;;;5013288;28;20033;-78
2022/01/16 13:08:51;;;;;;;12.65;5.80;;;30.20;31.00;;;;;;5008693;28;20022;-78
2022/01/16 13:11:17;;;;;;;11.43;6.78;;;28.20;31.00;;;;;;5010572;28;20403;-78
2022/01/16 13:13:43;;;;;;;9.13;4.45;;;30.10;30.80;;;;;;5011351;28;20026;-79
2022/01/16 13:16:26;;;;;;;9.77;4.97;;;31.70;31.00;;;;;;5008248;28;20352;-79
2022/01/16 13:19:04;;;;;;;11.50;5.85;;;32.80;29.30;;;;;;5005787;28;20507;-78
2022/01/16 13:21:43;;;;;;;10.60;5.30;;;33.60;29.30;;;;;;5015782;28;20089;-78
2022/01/16 13:24:21;;;;;;;10.15;5.13;;;34.00;29.20;;;;;;5015374;28;20046;-79
2022/01/16 13:26:47;;;;;;;9.27;5.43;;;34.40;28.90;;;;;;5015592;28;20391;-79
2022/01/16 13:29:15;;;;;;;9.82;5.28;;;34.80;28.60;;;;;;5011731;28;20033;-79